Time;durP1;ratioP1;P1;durP2;ratioP2;P2;SDS_P1;SDS_P2;PMS_P1;PMS_P2;Temp;Humidity;BMP_temperature;BMP_pressure;BME280_temperature;BME280_humidity;BME280_pressure;Samples;Min_cycle;Max_cycle;Signal;HPM_P1;HPM_P2
2023/11/13 00:00:07;;;;;;;44.85;25.55;;;;;;;5.36;100.00;99961.47;5071193;28;20101;-44
2023/11/13 00:02:36;;;;;;;43.78;25.40;;;;;;;5.40;100.00;99962.19;5071640;28;20052;-44
2023/11/13 00:05:05;;;;;;;47.78;26.55;;;;;;;5.29;100.00;99948.59;5071277;28;20049;-45
2023/11/13 00:07:33;;;;;;;47.15;27.60;;;;;;;5.34;100.00;99962.47;5071302;28;20060;-42
2023/11/13 00:10:01;;;;;;;44.60;26.13;;;;;;;5.47;100.00;99966.31;5071344;28;20069;-45
2023/11/13 00:12:30;;;;;;;44.00;26.10;;;;;;;5.50;100.00;99960.91;5071128;28;20048;-46
2023/11/13 00:14:59;;;;;;;46.22;26.23;;;;;;;5.53;100.00;99963.41;5071192;28;20139;-45
2023/11/13 00:17:27;;;;;;;41.47;25.23;;;;;;;5.67;100.00;99966.28;5071311;28;20049;-44
2023/11/13 00:19:57;;;;;;;46.35;25.23;;;;;;;5.63;100.00;99967.34;5071039;28;20512;-45
2023/11/13 00:22:26;;;;;;;40.85;22.48;;;;;;;5.66;100.00;99975.16;5072021;28;20048;-45
2023/11/13 00:24:55;;;;;;;40.03;23.05;;;;;;;5.74;100.00;99973.03;5072687;28;20049;-45
2023/11/13 00:27:24;;;;;;;35.65;21.67;;;;;;;5.79;100.00;99975.47;5071437;28;20059;-45
2023/11/13 00:29:52;;;;;;;37.33;22.50;;;;;;;5.67;100.00;99974.22;5072513;28;20509;-45
2023/11/13 00:32:23;;;;;;;44.25;25.13;;;;;;;5.64;100.00;99979.66;5073307;28;20053;-44
2023/11/13 00:34:51;;;;;;;44.92;24.98;;;;;;;5.64;100.00;99984.94;5072957;28;20082;-47
2023/11/13 00:37:19;;;;;;;43.00;25.17;;;;;;;5.74;100.00;99980.09;5073787;28;20044;-44
2023/11/13 00:39:51;;;;;;;46.63;25.45;;;;;;;5.74;100.00;99980.09;5074332;28;20048;-45
2023/11/13 00:42:20;;;;;;;42.45;25.42;;;;;;;5.58;100.00;99977.25;5074344;28;20135;-45
2023/11/13 00:44:48;;;;;;;44.20;26.50;;;;;;;5.44;100.00;99967.31;5074819;28;20139;-45
2023/11/13 00:47:17;;;;;;;47.55;28.38;;;;;;;5.24;100.00;99961.16;5072811;28;20045;-45
2023/11/13 00:49:47;;;;;;;50.28;29.30;;;;;;;5.36;100.00;99956.19;5076077;28;20106;-43
2023/11/13 00:52:16;;;;;;;47.00;27.85;;;;;;;5.40;100.00;99954.25;5074420;28;20068;-43
2023/11/13 00:54:44;;;;;;;44.72;27.35;;;;;;;5.49;100.00;99956.50;5074230;28;20044;-45
2023/11/13 00:57:12;;;;;;;48.17;28.13;;;;;;;5.56;100.00;99960.59;5074513;28;20124;-45
2023/11/13 00:59:41;;;;;;;49.58;27.95;;;;;;;5.32;100.00;99948.47;5074158;28;20501;-44
2023/11/13 01:02:09;;;;;;;46.83;27.50;;;;;;;5.31;100.00;99946.75;5074339;28;20044;-44
2023/11/13 01:04:37;;;;;;;45.60;28.10;;;;;;;5.40;100.00;99936.63;5074186;28;20168;-44
2023/11/13 01:07:07;;;;;;;50.22;28.17;;;;;;;5.17;100.00;99934.13;5073998;28;20126;-44
2023/11/13 01:09:36;;;;;;;48.13;27.10;;;;;;;5.30;100.00;99942.38;5073976;28;20546;-44
2023/11/13 01:12:04;;;;;;;45.70;25.20;;;;;;;5.45;100.00;99944.34;5074251;28;20040;-43
2023/11/13 01:14:33;;;;;;;46.65;27.10;;;;;;;5.40;100.00;99943.69;5073993;28;20194;-45
2023/11/13 01:17:02;;;;;;;51.92;27.83;;;;;;;5.16;100.00;99942.97;5073673;28;20539;-44
2023/11/13 01:19:30;;;;;;;46.83;26.52;;;;;;;5.37;100.00;99943.81;5073855;28;20045;-43
2023/11/13 01:21:58;;;;;;;49.17;27.20;;;;;;;5.46;100.00;99951.34;5073453;28;20047;-46
2023/11/13 01:24:28;;;;;;;46.30;26.23;;;;;;;5.61;100.00;99949.84;5073829;28;20052;-43
2023/11/13 01:26:56;;;;;;;42.90;24.67;;;;;;;5.68;100.00;99953.91;5073637;28;20460;-44
2023/11/13 01:29:25;;;;;;;42.80;24.38;;;;;;;5.63;100.00;99954.13;5073706;28;20067;-44
2023/11/13 01:31:53;;;;;;;47.15;26.48;;;;;;;5.55;100.00;99956.25;5073781;28;20139;-41
2023/11/13 01:34:22;;;;;;;43.03;24.38;;;;;;;5.40;100.00;99960.44;5073631;28;20059;-44
2023/11/13 01:36:50;;;;;;;51.13;27.75;;;;;;;5.29;100.00;99964.44;5073454;28;20519;-42
2023/11/13 01:39:18;;;;;;;50.83;27.40;;;;;;;5.25;100.00;99968.16;5073495;28;20048;-44
2023/11/13 01:41:48;;;;;;;47.80;26.60;;;;;;;5.22;100.00;99970.94;5073529;28;20049;-44
2023/11/13 01:44:16;;;;;;;44.13;25.48;;;;;;;5.29;100.00;99975.03;5073329;28;20139;-46
2023/11/13 01:46:44;;;;;;;41.47;25.33;;;;;;;5.40;100.00;99978.97;5073315;28;20044;-44
2023/11/13 01:49:13;;;;;;;44.13;27.38;;;;;;;5.46;100.00;99983.09;5072012;28;20103;-43
2023/11/13 01:51:42;;;;;;;45.28;25.80;;;;;;;5.59;100.00;99983.41;5073304;28;20044;-43
2023/11/13 01:54:10;;;;;;;47.05;26.98;;;;;;;5.59;100.00;99992.22;5073096;28;20045;-45
2023/11/13 01:56:41;;;;;;;44.65;25.60;;;;;;;5.58;100.00;99993.13;5073130;28;20055;-45
2023/11/13 01:59:13;;;;;;;39.85;24.63;;;;;;;5.55;100.00;100003.88;5072676;28;20059;-44
2023/11/13 02:01:42;;;;;;;43.20;25.20;;;;;;;5.47;100.00;100006.84;5072819;28;20676;-46
2023/11/13 02:04:10;;;;;;;44.08;25.23;;;;;;;5.63;100.00;100012.34;5073368;28;20080;-44
2023/11/13 02:06:38;;;;;;;45.15;26.25;;;;;;;5.44;100.00;100016.72;5073000;28;20374;-44
2023/11/13 02:09:10;;;;;;;43.03;25.05;;;;;;;5.48;100.00;100007.69;5073089;28;20075;-43
2023/11/13 02:11:38;;;;;;;45.45;25.98;;;;;;;5.44;100.00;100000.84;5072861;28;20444;-46
2023/11/13 02:14:07;;;;;;;47.05;26.27;;;;;;;5.30;100.00;99997.91;5072823;28;20048;-44
2023/11/13 02:16:36;;;;;;;45.90;26.73;;;;;;;5.33;100.00;100003.94;5073021;28;20049;-44
2023/11/13 02:19:05;;;;;;;46.40;26.02;;;;;;;5.08;100.00;99998.81;5073001;28;20041;-42
2023/11/13 02:21:33;;;;;;;44.78;24.38;;;;;;;5.21;100.00;99993.00;5073098;28;20062;-44
2023/11/13 02:24:04;;;;;;;42.72;26.02;;;;;;;5.08;100.00;99998.81;5074496;28;20056;-43
2023/11/13 02:26:32;;;;;;;42.17;24.33;;;;;;;4.86;100.00;100006.78;5072395;28;20053;-43
2023/11/13 02:29:00;;;;;;;44.50;25.10;;;;;;;4.92;100.00;100003.00;5072347;28;20131;-43
2023/11/13 02:31:31;;;;;;;43.15;25.92;;;;;;;4.94;100.00;99995.91;5072304;28;20053;-45
2023/11/13 02:34:00;;;;;;;44.20;25.13;;;;;;;4.94;100.00;99992.41;5072484;28;20148;-45
2023/11/13 02:36:28;;;;;;;47.47;26.00;;;;;;;5.08;100.00;100004.09;5072427;28;20045;-44
2023/11/13 02:38:57;;;;;;;43.45;24.25;;;;;;;5.12;100.00;99995.13;5072378;28;20080;-44
2023/11/13 02:41:26;;;;;;;37.72;21.98;;;;;;;5.29;100.00;99993.53;5072270;28;20053;-43
2023/11/13 02:43:55;;;;;;;34.38;20.30;;;;;;;5.29;100.00;99993.53;5072386;28;20128;-44
2023/11/13 02:46:23;;;;;;;40.92;23.23;;;;;;;5.37;100.00;99989.66;5072078;28;20054;-45
2023/11/13 02:48:51;;;;;;;39.75;22.42;;;;;;;5.36;100.00;99989.72;5072458;28;20048;-44
2023/11/13 02:51:19;;;;;;;36.67;21.90;;;;;;;5.41;100.00;99993.03;5072274;28;20048;-44
2023/11/13 02:53:48;;;;;;;37.88;21.73;;;;;;;5.43;100.00;99989.41;5072039;28;20408;-44
2023/11/13 02:56:17;;;;;;;36.80;20.98;;;;;;;5.51;100.00;99991.72;5072273;28;20041;-44
2023/11/13 02:58:46;;;;;;;37.20;21.90;;;;;;;5.57;100.00;99996.72;5072177;28;20087;-44
2023/11/13 03:01:15;;;;;;;36.75;21.02;;;;;;;5.61;100.00;99998.31;5072044;28;20101;-45
2023/11/13 03:03:44;;;;;;;38.75;21.45;;;;;;;5.67;100.00;99989.22;5072130;28;20405;-44
2023/11/13 03:06:13;;;;;;;33.88;19.83;;;;;;;5.72;100.00;99993.41;5071778;28;20053;-44
2023/11/13 03:08:43;;;;;;;38.70;22.20;;;;;;;5.51;100.00;99997.00;5071688;28;20045;-44
2023/11/13 03:11:13;;;;;;;38.78;22.40;;;;;;;5.45;100.00;99984.03;5071922;28;20059;-43
2023/11/13 03:13:41;;;;;;;39.95;23.70;;;;;;;5.36;100.00;99982.63;5071873;28;20048;-44
2023/11/13 03:16:11;;;;;;;41.42;23.33;;;;;;;5.06;100.00;99981.31;5071524;28;20127;-43
2023/11/13 03:18:39;;;;;;;39.80;23.88;;;;;;;5.04;100.00;99984.00;5071635;28;20050;-45
2023/11/13 03:21:08;;;;;;;37.92;23.08;;;;;;;5.06;100.00;99984.81;5071418;28;20070;-44
2023/11/13 03:23:38;;;;;;;42.88;23.02;;;;;;;4.91;100.00;99979.28;5071390;28;20121;-45
2023/11/13 03:26:06;;;;;;;38.45;23.75;;;;;;;4.80;100.00;99972.66;5071466;28;20052;-43
2023/11/13 03:28:35;;;;;;;39.40;22.33;;;;;;;5.04;100.00;99981.38;5071373;28;20485;-44
2023/11/13 03:31:03;;;;;;;41.25;22.83;;;;;;;5.09;100.00;99971.44;5071497;28;20049;-45
2023/11/13 03:33:33;;;;;;;40.42;21.75;;;;;;;5.06;100.00;99973.38;5071417;28;20047;-45
2023/11/13 03:36:02;;;;;;;35.60;22.73;;;;;;;4.85;100.00;99976.00;5071889;28;20060;-45
2023/11/13 03:38:30;;;;;;;36.53;21.30;;;;;;;4.96;100.00;99980.81;5071404;28;20052;-44
2023/11/13 03:40:59;;;;;;;40.30;22.33;;;;;;;5.14;100.00;99966.84;5071416;28;20455;-44
2023/11/13 03:43:28;;;;;;;36.70;21.70;;;;;;;5.31;100.00;99962.63;5071512;28;20045;-44
2023/11/13 03:45:57;;;;;;;34.38;20.75;;;;;;;5.31;100.00;99970.56;5070091;28;20502;-44
2023/11/13 03:48:25;;;;;;;34.85;20.35;;;;;;;5.38;100.00;99970.19;5071406;28;20460;-44
2023/11/13 03:50:54;;;;;;;37.33;20.25;;;;;;;5.32;100.00;99969.63;5071422;28;20072;-45
2023/11/13 03:53:22;;;;;;;32.63;20.00;;;;;;;5.36;100.00;99972.06;5071409;28;20066;-44
2023/11/13 03:55:51;;;;;;;32.85;20.33;;;;;;;5.36;100.00;99965.91;5071192;28;20508;-43
2023/11/13 03:58:19;;;;;;;30.40;18.63;;;;;;;5.22;100.00;99970.94;5071136;28;20097;-43
2023/11/13 04:00:48;;;;;;;32.33;18.33;;;;;;;5.29;100.00;99977.66;5071196;28;20140;-43
2023/11/13 04:03:16;;;;;;;32.95;19.20;;;;;;;5.34;100.00;99979.22;5071388;28;20087;-44
2023/11/13 04:05:45;;;;;;;28.50;17.33;;;;;;;5.41;100.00;99985.09;5071136;28;20048;-43
2023/11/13 04:08:14;;;;;;;29.63;18.15;;;;;;;5.58;100.00;99990.50;5071177;28;20085;-44
2023/11/13 04:10:43;;;;;;;29.27;17.20;;;;;;;5.58;100.00;99987.00;5070869;28;20048;-44
2023/11/13 04:13:11;;;;;;;27.50;16.27;;;;;;;5.48;100.00;99981.25;5070941;28;20135;-44
2023/11/13 04:15:40;;;;;;;27.83;16.40;;;;;;;5.45;100.00;99978.75;5071149;28;20082;-45
2023/11/13 04:18:08;;;;;;;29.58;17.23;;;;;;;5.12;100.00;99989.00;5071007;28;20044;-44
2023/11/13 04:20:36;;;;;;;27.90;16.67;;;;;;;5.21;100.00;99983.31;5071848;28;20405;-45
2023/11/13 04:23:04;;;;;;;27.20;17.08;;;;;;;5.24;100.00;99983.19;5072546;28;20958;-44
2023/11/13 04:25:34;;;;;;;27.17;16.27;;;;;;;5.12;100.00;99976.63;5074700;28;20040;-43
2023/11/13 04:28:03;;;;;;;30.20;18.25;;;;;;;4.89;100.00;99982.00;5074553;28;20055;-44
2023/11/13 04:30:33;;;;;;;25.90;16.38;;;;;;;4.97;100.00;99984.31;5074656;28;20051;-44
2023/11/13 04:33:02;;;;;;;36.13;19.05;;;;;;;5.04;100.00;99981.38;5074611;28;20053;-43
2023/11/13 04:35:30;;;;;;;32.58;18.73;;;;;;;5.11;100.00;99988.09;5074845;28;20049;-45
2023/11/13 04:37:59;;;;;;;31.13;18.15;;;;;;;5.12;100.00;99994.28;5074580;28;20036;-44
2023/11/13 04:40:27;;;;;;;28.05;16.75;;;;;;;5.15;100.00;99994.13;5074644;28;20481;-44
2023/11/13 04:43:01;;;;;;;31.27;18.02;;;;;;;5.25;100.00;99997.25;5074580;28;20049;-43
2023/11/13 04:45:34;;;;;;;31.10;17.67;;;;;;;5.32;100.00;100001.38;5074674;28;20080;-44
2023/11/13 04:48:04;;;;;;;29.65;17.60;;;;;;;5.48;100.00;100002.41;5074210;28;20048;-43
2023/11/13 04:50:33;;;;;;;29.58;17.92;;;;;;;5.58;100.00;100001.06;5074145;28;20509;-45
2023/11/13 04:53:01;;;;;;;31.38;17.33;;;;;;;5.58;100.00;99998.44;5074127;28;20055;-44
2023/11/13 04:55:30;;;;;;;28.92;17.38;;;;;;;5.62;100.00;100005.31;5074411;28;20132;-43
2023/11/13 04:58:01;;;;;;;28.73;17.10;;;;;;;5.69;100.00;100013.84;5074421;28;20366;-44
2023/11/13 05:00:30;;;;;;;27.45;16.20;;;;;;;5.73;100.00;100011.00;5074153;28;20102;-44
2023/11/13 05:03:00;;;;;;;29.40;16.33;;;;;;;5.64;100.00;100007.91;5074252;28;20400;-44
2023/11/13 05:05:32;;;;;;;33.75;17.45;;;;;;;5.55;100.00;100003.00;5074001;28;20052;-42
2023/11/13 05:08:01;;;;;;;32.97;17.83;;;;;;;5.51;100.00;99993.50;5074133;28;20060;-44
2023/11/13 05:10:29;;;;;;;34.53;18.17;;;;;;;5.38;100.00;99993.16;5074148;28;20556;-44
2023/11/13 05:12:57;;;;;;;30.60;18.10;;;;;;;5.41;100.00;99990.41;5074253;28;20044;-44
2023/11/13 05:15:27;;;;;;;29.48;16.10;;;;;;;5.23;100.00;99991.19;5074148;28;20068;-44
2023/11/13 05:17:55;;;;;;;27.70;16.05;;;;;;;5.26;100.00;99997.19;5074003;28;20044;-45
2023/11/13 05:20:24;;;;;;;27.67;16.90;;;;;;;5.39;100.00;99995.72;5073826;28;20074;-44
2023/11/13 05:22:52;;;;;;;25.48;16.10;;;;;;;5.34;100.00;100004.81;5073942;28;20088;-45
2023/11/13 05:25:21;;;;;;;27.02;16.27;;;;;;;5.27;100.00;100003.34;5074002;28;20072;-44
2023/11/13 05:27:49;;;;;;;28.67;16.95;;;;;;;5.05;100.00;100006.03;5073934;28;20052;-43
2023/11/13 05:30:18;;;;;;;31.20;16.48;;;;;;;5.16;100.00;100007.28;5073917;28;20102;-46
2023/11/13 05:32:48;;;;;;;28.10;15.98;;;;;;;5.20;100.00;100021.22;5073683;28;20040;-45
2023/11/13 05:35:16;;;;;;;27.50;16.60;;;;;;;5.18;100.00;100026.59;5072768;28;20049;-43
2023/11/13 05:37:45;;;;;;;29.65;16.42;;;;;;;5.20;100.00;100012.44;5073904;28;20052;-43
2023/11/13 05:40:16;;;;;;;27.52;16.30;;;;;;;5.10;100.00;100023.41;5073711;28;20102;-43
2023/11/13 05:42:44;;;;;;;27.77;16.15;;;;;;;5.23;100.00;100034.34;5074127;28;20136;-45
2023/11/13 05:45:14;;;;;;;30.00;16.60;;;;;;;5.25;100.00;100032.50;5073334;28;20040;-44
2023/11/13 05:47:45;;;;;;;25.98;15.30;;;;;;;5.39;100.00;100029.25;5073612;28;20567;-43
2023/11/13 05:50:14;;;;;;;24.65;14.40;;;;;;;5.66;100.00;100028.06;5073813;28;20051;-45
2023/11/13 05:52:43;;;;;;;30.63;15.23;;;;;;;5.82;100.00;100038.00;5073808;28;20048;-43
2023/11/13 05:55:12;;;;;;;26.38;15.52;;;;;;;5.90;100.00;100033.22;5073504;28;20044;-44
2023/11/13 05:57:40;;;;;;;28.10;15.60;;;;;;;5.84;100.00;100042.28;5073470;28;20048;-44
2023/11/13 06:00:11;;;;;;;24.05;15.57;;;;;;;5.92;100.00;100044.63;5073338;28;20048;-43
2023/11/13 06:02:40;;;;;;;26.73;15.15;;;;;;;6.02;100.00;100046.81;5073523;28;20048;-44
2023/11/13 06:05:09;;;;;;;28.45;15.57;;;;;;;5.70;100.00;100044.69;5084087;28;20040;-44
2023/11/13 06:07:38;;;;;;;27.52;15.95;;;;;;;5.79;100.00;100056.63;5093116;28;20428;-45
2023/11/13 06:10:10;;;;;;;27.17;15.48;;;;;;;5.75;100.00;100054.13;5093021;28;20093;-44
2023/11/13 06:12:39;;;;;;;26.05;15.20;;;;;;;5.90;100.00;100054.41;5092910;28;20118;-44
2023/11/13 06:15:11;;;;;;;24.00;15.32;;;;;;;5.93;100.00;100047.22;5093249;28;20044;-44
2023/11/13 06:17:42;;;;;;;29.35;17.30;;;;;;;5.99;100.00;100064.63;5093324;28;20044;-45
2023/11/13 06:20:13;;;;;;;27.63;16.88;;;;;;;6.07;100.00;100061.63;5093543;28;20048;-44
2023/11/13 06:22:47;;;;;;;28.23;17.58;;;;;;;6.27;100.00;100072.16;5093126;28;20063;-44
2023/11/13 06:25:16;;;;;;;29.73;17.13;;;;;;;6.32;100.00;100080.78;5093353;28;20495;-44
2023/11/13 06:27:45;;;;;;;27.92;17.35;;;;;;;6.25;100.00;100085.47;5091734;28;20459;-43
2023/11/13 06:30:13;;;;;;;29.63;17.33;;;;;;;6.27;100.00;100086.31;5090795;28;20048;-43
2023/11/13 06:32:43;;;;;;;31.73;18.58;;;;;;;6.29;100.00;100080.94;5091633;28;20048;-43
2023/11/13 06:35:12;;;;;;;32.38;19.52;;;;;;;6.08;100.00;100079.22;5090497;28;20063;-42
2023/11/13 06:37:42;;;;;;;37.97;21.80;;;;;;;6.27;100.00;100083.66;5092742;28;20163;-44
2023/11/13 06:40:11;;;;;;;39.83;22.70;;;;;;;6.28;100.00;100073.91;5093108;28;20039;-43
2023/11/13 06:42:40;;;;;;;31.92;20.45;;;;;;;5.96;100.00;100067.38;5092982;28;20044;-44
2023/11/13 06:45:11;;;;;;;32.25;19.13;;;;;;;5.92;100.00;100068.47;5092825;28;20048;-43
2023/11/13 06:47:41;;;;;;;32.03;19.45;;;;;;;5.74;100.00;100068.31;5092957;28;20071;-45
2023/11/13 06:50:10;;;;;;;34.33;21.08;;;;;;;5.74;100.00;100070.09;5092781;28;20066;-43
2023/11/13 06:52:38;;;;;;;32.70;19.38;;;;;;;5.86;100.00;100071.34;5092634;28;20417;-44
2023/11/13 06:55:13;;;;;;;25.88;15.15;;;;;;;5.59;100.00;100068.09;5092719;28;20055;-43
2023/11/13 06:57:42;;;;;;;26.98;17.00;;;;;;;5.80;100.00;100061.03;5092622;28;20405;-45
2023/11/13 07:00:11;;;;;;;27.92;16.98;;;;;;;5.84;100.00;100071.41;5092500;28;20059;-45
2023/11/13 07:02:41;;;;;;;29.83;17.55;;;;;;;5.82;100.00;100067.97;5092334;28;20055;-44
2023/11/13 07:05:11;;;;;;;31.27;19.10;;;;;;;5.83;100.00;100071.47;5092571;28;20047;-45
2023/11/13 07:07:39;;;;;;;30.35;18.55;;;;;;;5.88;100.00;100072.13;5092154;28;20198;-53
2023/11/13 07:10:12;;;;;;;33.55;19.55;;;;;;;5.86;100.00;100081.94;5092415;28;20104;-43
2023/11/13 07:12:42;;;;;;;30.45;19.13;;;;;;;5.85;100.00;100082.84;5092472;28;20052;-44
2023/11/13 07:15:13;;;;;;;29.55;18.30;;;;;;;6.01;100.00;100086.59;5092216;28;20044;-45
2023/11/13 07:17:43;;;;;;;28.08;17.75;;;;;;;6.09;100.00;100089.78;5092350;28;20047;-52
2023/11/13 07:20:13;;;;;;;32.85;18.90;;;;;;;6.03;100.00;100085.59;5092325;28;20048;-43
2023/11/13 07:22:41;;;;;;;26.80;17.30;;;;;;;6.14;100.00;100094.84;5091706;28;20052;-43
2023/11/13 07:25:11;;;;;;;28.63;17.13;;;;;;;6.24;100.00;100097.00;5092148;28;20275;-42
2023/11/13 07:27:40;;;;;;;28.33;16.90;;;;;;;6.35;100.00;100100.97;5091799;28;20048;-43
2023/11/13 07:30:10;;;;;;;25.30;15.93;;;;;;;6.18;100.00;100099.97;5089051;28;20077;-44
2023/11/13 07:32:38;;;;;;;29.25;16.48;;;;;;;6.18;100.00;100093.81;5081659;28;20072;-43
2023/11/13 07:35:07;;;;;;;31.65;18.55;;;;;;;6.22;100.00;100093.56;5071835;28;20055;-43
2023/11/13 07:37:36;;;;;;;26.67;16.15;;;;;;;6.06;100.00;100076.66;5071739;28;20398;-43
2023/11/13 07:40:09;;;;;;;24.15;14.50;;;;;;;6.21;100.00;100073.31;5071698;28;20211;-44
2023/11/13 07:42:40;;;;;;;24.92;15.18;;;;;;;6.30;100.00;100072.91;5071719;28;20044;-44
2023/11/13 07:45:10;;;;;;;23.73;14.50;;;;;;;6.26;100.00;100076.59;5074354;28;20044;-44
2023/11/13 07:47:40;;;;;;;25.95;14.93;;;;;;;6.40;100.00;100075.13;5092005;28;20446;-44
2023/11/13 07:50:11;;;;;;;28.50;14.80;;;;;;;6.52;100.00;100074.56;5091865;28;20044;-44
2023/11/13 07:52:43;;;;;;;23.67;13.90;;;;;;;6.52;100.00;100072.78;5091488;28;20127;-47
2023/11/13 07:55:12;;;;;;;23.60;13.00;;;;;;;6.35;100.00;100077.13;5091617;28;20048;-44
2023/11/13 07:57:42;;;;;;;25.13;14.40;;;;;;;6.49;100.00;100077.38;5091043;28;20046;-45
2023/11/13 08:00:15;;;;;;;23.58;14.45;;;;;;;6.49;100.00;100077.38;5091862;28;20044;-43
2023/11/13 08:02:44;;;;;;;23.80;14.27;;;;;;;6.49;100.00;100072.06;5091541;28;20094;-44
2023/11/13 08:05:16;;;;;;;23.00;14.52;;;;;;;6.52;100.00;100080.72;5092072;28;20044;-42
2023/11/13 08:07:50;;;;;;;24.77;14.57;;;;;;;6.67;100.00;100076.53;5090165;28;20504;-42
2023/11/13 08:10:19;;;;;;;24.30;14.10;;;;;;;6.73;100.00;100085.94;5089830;28;20036;-42
2023/11/13 08:12:50;;;;;;;25.67;14.70;;;;;;;6.64;100.00;100081.94;5090639;28;20166;-42
2023/11/13 08:15:18;;;;;;;26.58;15.73;;;;;;;6.65;100.00;100078.34;5091491;28;20083;-43
2023/11/13 08:17:52;;;;;;;25.05;15.02;;;;;;;6.67;100.00;100065.91;5091273;28;20082;-43
2023/11/13 08:20:26;;;;;;;26.25;15.02;;;;;;;6.82;100.00;100064.31;5092043;28;20052;-44
2023/11/13 08:22:56;;;;;;;25.10;15.15;;;;;;;6.98;100.00;100075.91;5092206;28;20194;-43
2023/11/13 08:25:25;;;;;;;21.60;14.73;;;;;;;7.11;100.00;100081.47;5094242;28;20044;-45
2023/11/13 08:27:55;;;;;;;25.65;14.65;;;;;;;7.16;100.00;100084.78;5095031;28;20072;-43
2023/11/13 08:30:23;;;;;;;23.50;14.85;;;;;;;7.15;100.00;100107.78;5093171;28;20060;-44
2023/11/13 08:32:54;;;;;;;27.45;15.68;;;;;;;7.24;100.00;100113.56;5093059;28;20044;-44
2023/11/13 08:35:23;;;;;;;27.35;15.95;;;;;;;7.41;100.00;100116.25;5092883;28;20090;-44
2023/11/13 08:37:51;;;;;;;27.73;15.85;;;;;;;7.34;100.00;100110.41;5093079;28;20054;-43
2023/11/13 08:40:24;;;;;;;23.95;15.20;;;;;;;7.52;100.00;100107.75;5093574;28;20040;-50
2023/11/13 08:42:55;;;;;;;24.90;14.95;;;;;;;7.58;100.00;100104.81;5092705;28;20048;-43
2023/11/13 08:45:27;;;;;;;25.55;15.95;;;;;;;7.69;100.00;100105.13;5092754;28;20044;-43
2023/11/13 08:47:55;;;;;;;26.48;15.80;;;;;;;7.85;100.00;100105.22;5092267;28;20040;-43
2023/11/13 08:50:24;;;;;;;26.50;15.05;;;;;;;7.83;100.00;100094.69;5094221;28;20048;-44
2023/11/13 08:52:56;;;;;;;26.60;15.68;;;;;;;7.94;100.00;100097.63;5093354;28;20048;-43
2023/11/13 08:55:25;;;;;;;24.80;14.88;;;;;;;8.08;100.00;100112.84;5093300;28;20044;-44
2023/11/13 08:57:56;;;;;;;23.63;15.07;;;;;;;8.16;100.00;100102.69;5093828;28;20048;-43
2023/11/13 09:00:29;;;;;;;25.30;15.10;;;;;;;7.82;100.00;100092.09;5094381;28;20169;-44
2023/11/13 09:02:57;;;;;;;24.98;14.75;;;;;;;7.81;100.00;100091.22;5093981;28;20040;-43
2023/11/13 09:05:28;;;;;;;29.73;16.40;;;;;;;7.64;100.00;100101.84;5093479;28;20063;-43
2023/11/13 09:07:57;;;;;;;26.23;15.50;;;;;;;7.62;100.00;100101.06;5091273;28;20055;-42
2023/11/13 09:10:27;;;;;;;26.45;15.68;;;;;;;7.66;100.00;100099.97;5094131;28;20084;-42
2023/11/13 09:13:00;;;;;;;25.90;15.38;;;;;;;7.59;100.00;100094.09;5094433;28;20488;-43
2023/11/13 09:15:30;;;;;;;25.00;14.90;;;;;;;7.71;100.00;100093.47;5094610;28;20050;-43
2023/11/13 09:18:05;;;;;;;27.50;15.55;;;;;;;7.78;100.00;100096.69;5094677;28;20055;-43
2023/11/13 09:20:34;;;;;;;25.65;15.88;;;;;;;7.71;100.00;100103.25;5094328;28;20583;-43
2023/11/13 09:23:05;;;;;;;23.95;15.65;;;;;;;7.82;100.00;100100.94;5094305;28;20052;-44
2023/11/13 09:25:34;;;;;;;22.95;15.25;;;;;;;7.89;100.00;100097.00;5094571;28;20059;-44
2023/11/13 09:28:05;;;;;;;24.50;15.88;;;;;;;8.03;100.00;100097.16;5093972;28;20055;-43
2023/11/13 09:30:34;;;;;;;25.35;15.85;;;;;;;8.03;100.00;100099.81;5094071;28;20051;-43
2023/11/13 09:33:04;;;;;;;24.75;15.40;;;;;;;8.15;100.00;100093.00;5093841;28;20128;-43
2023/11/13 09:35:36;;;;;;;25.63;15.35;;;;;;;8.22;100.00;100093.53;5093435;28;20044;-43
2023/11/13 09:38:09;;;;;;;24.55;14.68;;;;;;;8.03;100.00;100096.28;5093935;28;20098;-44
2023/11/13 09:40:39;;;;;;;22.73;14.93;;;;;;;8.23;100.00;100081.97;5093837;28;20554;-43
2023/11/13 09:43:14;;;;;;;23.98;15.18;;;;;;;8.31;100.00;100088.59;5093728;28;20048;-42
2023/11/13 09:45:50;;;;;;;26.55;15.75;;;;;;;8.38;100.00;100069.66;5093698;28;20075;-44
2023/11/13 09:48:28;;;;;;;26.60;15.38;;;;;;;8.36;100.00;100080.38;5093653;28;20050;-43
2023/11/13 09:50:58;;;;;;;27.20;15.38;;;;;;;8.38;100.00;100078.50;5093587;28;20054;-44
2023/11/13 09:53:28;;;;;;;26.40;15.88;;;;;;;8.30;100.00;100086.88;5093593;28;20076;-43
2023/11/13 09:55:58;;;;;;;23.40;15.60;;;;;;;8.34;100.00;100076.94;5093282;28;20052;-44
2023/11/13 09:58:28;;;;;;;24.02;15.13;;;;;;;8.56;100.00;100072.19;5093488;28;20139;-44
2023/11/13 10:00:57;;;;;;;24.33;14.70;;;;;;;8.16;100.00;100075.25;5093059;28;20465;-44
2023/11/13 10:03:25;;;;;;;24.05;15.23;;;;;;;8.25;100.00;100066.78;5093307;28;20047;-44
2023/11/13 10:05:54;;;;;;;24.17;15.52;;;;;;;8.55;100.00;100069.63;5093510;28;20048;-43
2023/11/13 10:08:24;;;;;;;24.45;15.43;;;;;;;8.66;100.00;100079.66;5093237;28;20040;-44
2023/11/13 10:10:53;;;;;;;23.15;15.82;;;;;;;8.52;100.00;100065.34;5093617;28;20467;-45
2023/11/13 10:13:23;;;;;;;24.75;14.93;;;;;;;8.70;100.00;100079.44;5093321;28;20485;-43
2023/11/13 10:15:53;;;;;;;24.13;15.38;;;;;;;8.66;100.00;100082.31;5093516;28;20040;-43
2023/11/13 10:18:26;;;;;;;28.13;16.38;;;;;;;8.77;100.00;100080.78;5093579;28;20052;-42
2023/11/13 10:20:59;;;;;;;24.30;14.85;;;;;;;8.87;100.00;100076.66;5092562;28;20052;-43
2023/11/13 10:23:34;;;;;;;25.17;15.68;;;;;;;8.60;100.00;100068.44;5092853;28;20052;-44
2023/11/13 10:26:09;;;;;;;26.67;15.98;;;;;;;8.73;100.00;100068.63;5093098;28;20044;-43
2023/11/13 10:28:40;;;;;;;24.30;16.70;;;;;;;8.68;100.00;100059.16;5093108;28;20073;-42
2023/11/13 10:31:12;;;;;;;25.15;16.50;;;;;;;8.90;100.00;100059.69;5093022;28;20385;-43
2023/11/13 10:33:41;;;;;;;29.80;16.95;;;;;;;8.58;100.00;100064.97;5092837;28;20048;-43
2023/11/13 10:36:17;;;;;;;27.88;17.05;;;;;;;8.59;100.00;100068.53;5092632;28;20463;-45
2023/11/13 10:38:47;;;;;;;26.08;16.23;;;;;;;8.85;100.00;100067.06;5093200;28;20051;-46
2023/11/13 10:41:21;;;;;;;28.40;16.75;;;;;;;8.96;100.00;100071.78;5092714;28;20508;-43
2023/11/13 10:43:50;;;;;;;25.35;17.73;;;;;;;8.87;100.00;100070.50;5092574;28;20489;-43
2023/11/13 10:46:29;;;;;;;28.65;17.13;;;;;;;8.88;100.00;100064.25;5093041;28;20054;-43
2023/11/13 10:48:59;;;;;;;25.73;16.80;;;;;;;8.99;100.00;100058.31;5093240;28;20044;-44
2023/11/13 10:51:30;;;;;;;27.60;16.38;;;;;;;9.09;100.00;100055.06;5094496;28;20048;-44
2023/11/13 10:54:03;;;;;;;26.13;15.55;;;;;;;9.11;100.00;100045.16;5094998;28;20048;-49
2023/11/13 10:56:32;;;;;;;23.92;15.82;;;;;;;9.26;100.00;100050.53;5095786;28;20325;-43
2023/11/13 10:59:01;;;;;;;23.42;15.45;;;;;;;9.37;100.00;100050.81;5095504;28;20082;-44
2023/11/13 11:01:31;;;;;;;24.30;16.10;;;;;;;9.50;100.00;100054.44;5093090;28;20045;-44
2023/11/13 11:04:05;;;;;;;25.60;17.02;;;;;;;9.52;100.00;100044.56;5093135;28;20048;-45
2023/11/13 11:06:39;;;;;;;27.25;16.90;;;;;;;9.57;100.00;100052.28;5093851;28;20135;-45
2023/11/13 11:09:12;;;;;;;23.10;15.80;;;;;;;9.40;100.00;100055.94;5094265;28;20134;-44
2023/11/13 11:11:42;;;;;;;28.80;16.52;;;;;;;9.31;100.00;100051.16;5093986;28;20051;-43
2023/11/13 11:14:16;;;;;;;23.48;15.15;;;;;;;9.40;100.00;100038.16;5093322;28;20052;-47
2023/11/13 11:16:49;;;;;;;25.73;16.38;;;;;;;9.51;100.00;100029.53;5093471;28;20076;-44
2023/11/13 11:19:27;;;;;;;23.58;15.82;;;;;;;9.61;100.00;100032.50;5092551;28;20214;-44
2023/11/13 11:22:02;;;;;;;25.63;16.13;;;;;;;9.59;100.00;100021.09;5091804;28;20056;-42